createdAt,value
2023-06-28T00:01:22.163Z,1.50
2023-06-28T00:03:50.478Z,1.50
2023-06-28T00:06:18.135Z,1.40
2023-06-28T00:08:46.935Z,1.30
2023-06-28T00:11:14.485Z,1.60
2023-06-28T00:13:43.361Z,1.30
2023-06-28T00:16:10.927Z,1.67
2023-06-28T00:18:38.798Z,1.60
2023-06-28T00:21:06.278Z,1.30
2023-06-28T00:23:33.948Z,1.40
2023-06-28T00:26:01.464Z,1.50
2023-06-28T00:28:29.027Z,1.40
2023-06-28T00:30:57.995Z,1.50
2023-06-28T00:33:25.505Z,1.57
2023-06-28T00:35:53.569Z,1.30
2023-06-28T00:38:21.178Z,1.43
2023-06-28T00:40:48.933Z,1.40
2023-06-28T00:43:16.487Z,1.23
2023-06-28T00:45:44.058Z,1.40
2023-06-28T00:48:13.079Z,1.40
2023-06-28T00:50:41.084Z,1.60
2023-06-28T00:53:09.552Z,1.40
2023-06-28T00:55:37.416Z,1.70
2023-06-28T00:58:05.808Z,1.23
2023-06-28T01:00:33.315Z,1.50
2023-06-28T01:03:01.695Z,1.40
2023-06-28T01:05:30.911Z,1.60
2023-06-28T01:07:59.306Z,1.20
2023-06-28T01:10:27.686Z,1.53
2023-06-28T01:12:56.447Z,1.50
2023-06-28T01:15:24.595Z,1.60
2023-06-28T01:17:52.783Z,1.50
2023-06-28T01:20:20.407Z,1.53
2023-06-28T01:22:57.278Z,1.57
2023-06-28T01:25:25.229Z,1.40
2023-06-28T01:27:53.304Z,1.30
2023-06-28T01:30:24.878Z,1.33
2023-06-28T01:32:52.796Z,1.50
2023-06-28T01:35:20.638Z,1.43
2023-06-28T01:37:48.939Z,1.40
2023-06-28T01:40:18.507Z,1.80
2023-06-28T01:42:46.545Z,1.40
2023-06-28T01:45:14.435Z,1.60
2023-06-28T01:47:42.126Z,1.37
2023-06-28T01:50:11.258Z,1.40
2023-06-28T01:52:38.926Z,1.63
2023-06-28T01:55:07.359Z,1.30
2023-06-28T01:57:36.213Z,1.80
2023-06-28T02:00:09.199Z,1.47
2023-06-28T02:02:37.279Z,1.47
2023-06-28T02:05:05.130Z,1.70
2023-06-28T02:07:32.869Z,1.43
2023-06-28T02:10:00.629Z,1.53
2023-06-28T02:12:28.172Z,1.50
2023-06-28T02:14:57.036Z,1.40
2023-06-28T02:17:24.604Z,1.30
2023-06-28T02:19:52.310Z,2.07
2023-06-28T02:22:20.397Z,1.60
2023-06-28T02:24:47.885Z,1.60
2023-06-28T02:27:15.956Z,1.60
2023-06-28T02:29:43.508Z,1.50
2023-06-28T02:32:13.242Z,1.40
2023-06-28T02:34:40.729Z,1.70
2023-06-28T02:37:08.228Z,1.40
2023-06-28T02:39:35.793Z,1.57
2023-06-28T02:42:03.314Z,1.40
2023-06-28T02:44:30.820Z,1.50
2023-06-28T02:46:58.432Z,1.70
2023-06-28T02:49:27.295Z,1.63
2023-06-28T02:51:54.811Z,1.87
2023-06-28T02:54:22.380Z,1.70
2023-06-28T02:56:49.883Z,1.80
2023-06-28T02:59:17.408Z,1.60
2023-06-28T03:01:45.069Z,1.70
2023-06-28T03:04:13.820Z,1.63
2023-06-28T03:06:43.101Z,1.40
2023-06-28T03:09:10.619Z,1.67
2023-06-28T03:11:38.110Z,1.70
2023-06-28T03:14:05.657Z,1.77
2023-06-28T03:16:33.214Z,1.53
2023-06-28T03:19:00.729Z,1.60
2023-06-28T03:21:28.231Z,1.63
2023-06-28T03:23:57.091Z,1.70
2023-06-28T03:26:24.686Z,1.57
2023-06-28T03:28:52.274Z,1.50
2023-06-28T03:31:19.812Z,1.77
2023-06-28T03:33:47.383Z,1.70
2023-06-28T03:36:15.902Z,1.40
2023-06-28T03:38:43.413Z,1.87
2023-06-28T03:41:14.136Z,1.57
2023-06-28T03:43:41.673Z,1.60
2023-06-28T03:46:09.284Z,1.50
2023-06-28T03:48:36.865Z,1.80
2023-06-28T03:51:04.483Z,1.70
2023-06-28T03:53:31.995Z,1.70
2023-06-28T03:55:59.734Z,1.70
2023-06-28T03:58:28.584Z,1.90
2023-06-28T04:00:56.107Z,1.70
2023-06-28T04:03:23.766Z,1.90
2023-06-28T04:05:51.490Z,1.60
2023-06-28T04:08:19.024Z,1.70
2023-06-28T04:10:46.704Z,1.70
2023-06-28T04:13:14.235Z,1.80
2023-06-28T04:15:43.108Z,2.10
2023-06-28T04:18:10.658Z,2.00
2023-06-28T04:20:38.177Z,1.63
2023-06-28T04:23:05.659Z,1.80
2023-06-28T04:25:33.144Z,1.80
2023-06-28T04:28:00.832Z,1.80
2023-06-28T04:30:28.404Z,1.60
2023-06-28T04:32:57.310Z,1.70
2023-06-28T04:35:24.927Z,1.70
2023-06-28T04:37:52.459Z,1.83
2023-06-28T04:40:20.063Z,1.60
2023-06-28T04:42:47.549Z,1.73
2023-06-28T04:45:15.204Z,1.70
2023-06-28T04:47:42.828Z,1.80
2023-06-28T04:50:12.864Z,2.00
2023-06-28T04:52:40.431Z,2.10
2023-06-28T04:55:08.576Z,2.00
2023-06-28T04:57:36.105Z,2.00
2023-06-28T05:00:04.232Z,2.20
2023-06-28T05:02:33.063Z,1.70
2023-06-28T05:05:00.810Z,1.70
2023-06-28T05:07:30.346Z,2.07
2023-06-28T05:09:57.894Z,1.90
2023-06-28T05:12:25.443Z,1.70
2023-06-28T05:14:52.956Z,1.90
2023-06-28T05:17:20.497Z,1.80
2023-06-28T05:19:48.009Z,1.70
2023-06-28T05:22:15.525Z,1.83
2023-06-28T05:24:44.407Z,1.90
2023-06-28T05:27:11.939Z,1.80
2023-06-28T05:29:39.447Z,1.77
2023-06-28T05:32:07.656Z,2.00
2023-06-28T05:34:36.152Z,1.60
2023-06-28T05:37:03.855Z,1.77
2023-06-28T05:39:31.414Z,1.80
2023-06-28T05:42:00.321Z,1.77
2023-06-28T05:44:27.869Z,1.90
2023-06-28T05:46:55.376Z,1.80
2023-06-28T05:49:22.904Z,1.67
2023-06-28T05:51:50.457Z,1.90
2023-06-28T05:54:17.985Z,1.70
2023-06-28T05:56:45.808Z,1.70
2023-06-28T05:59:14.665Z,1.67
2023-06-28T06:01:42.241Z,1.80
2023-06-28T06:04:09.853Z,1.77
2023-06-28T06:06:37.447Z,1.90
2023-06-28T06:09:05.219Z,1.70
2023-06-28T06:11:32.734Z,1.90
2023-06-28T06:14:00.270Z,1.70
2023-06-28T06:16:29.111Z,2.17
2023-06-28T06:18:56.626Z,1.80
2023-06-28T06:21:24.137Z,1.77
2023-06-28T06:23:52.647Z,1.77
2023-06-28T06:26:20.184Z,2.00
2023-06-28T06:28:47.720Z,1.97
2023-06-28T06:31:16.319Z,1.80
2023-06-28T06:33:45.275Z,1.90
2023-06-28T06:36:12.848Z,1.63
2023-06-28T06:38:40.363Z,1.67
2023-06-28T06:41:07.901Z,1.70
2023-06-28T06:43:35.492Z,1.60
2023-06-28T06:46:03.032Z,1.73
2023-06-28T06:48:30.596Z,1.80
2023-06-28T06:50:59.624Z,1.60
2023-06-28T06:53:27.113Z,1.90
2023-06-28T06:55:54.634Z,1.97
2023-06-28T06:58:22.135Z,2.33
2023-06-28T07:00:49.668Z,1.93
2023-06-28T07:03:17.190Z,1.90
2023-06-28T07:05:45.035Z,1.60
2023-06-28T07:08:14.694Z,2.50
2023-06-28T07:10:42.217Z,2.73
2023-06-28T07:13:10.232Z,2.20
2023-06-28T07:15:37.738Z,2.00
2023-06-28T07:18:05.786Z,2.47
2023-06-28T07:20:33.447Z,2.10
2023-06-28T07:23:00.967Z,3.03
2023-06-28T07:25:29.970Z,2.20
2023-06-28T07:28:00.130Z,2.17
2023-06-28T07:30:32.139Z,2.35
2023-06-28T07:32:59.693Z,2.20
2023-06-28T07:35:27.237Z,1.60
2023-06-28T07:37:55.003Z,1.90
2023-06-28T07:40:22.698Z,2.13
2023-06-28T07:42:51.554Z,2.22
2023-06-28T07:45:19.113Z,2.03
2023-06-28T07:47:46.672Z,1.73
2023-06-28T07:50:14.264Z,2.05
2023-06-28T07:52:41.913Z,3.10
2023-06-28T07:55:12.003Z,1.95
2023-06-28T07:57:39.589Z,1.80
2023-06-28T08:00:11.151Z,1.70
2023-06-28T08:02:38.728Z,2.60
2023-06-28T08:05:06.695Z,1.95
2023-06-28T08:07:34.330Z,1.85
2023-06-28T08:10:01.946Z,1.50
2023-06-28T08:12:29.451Z,1.75
2023-06-28T08:14:56.985Z,1.95
2023-06-28T08:17:25.960Z,1.60
2023-06-28T08:19:53.648Z,1.70
2023-06-28T08:22:21.158Z,1.85
2023-06-28T08:24:49.277Z,1.52
2023-06-28T08:27:16.933Z,1.60
2023-06-28T08:29:44.486Z,2.55
2023-06-28T08:32:12.031Z,2.25
2023-06-28T08:34:41.727Z,1.85
2023-06-28T08:37:09.715Z,2.00
2023-06-28T08:39:37.852Z,1.90
2023-06-28T08:42:06.482Z,1.77
2023-06-28T08:44:35.441Z,1.92
2023-06-28T08:47:03.905Z,1.70
2023-06-28T08:49:33.155Z,1.88
2023-06-28T08:52:02.057Z,1.80
2023-06-28T08:54:30.859Z,2.20
2023-06-28T08:57:11.034Z,1.95
2023-06-28T08:59:39.703Z,1.90
2023-06-28T09:02:10.637Z,1.75
2023-06-28T09:04:38.406Z,1.98
2023-06-28T09:07:08.490Z,2.00
2023-06-28T09:09:37.977Z,2.28
2023-06-28T09:12:06.875Z,2.00
2023-06-28T09:14:34.389Z,1.92
2023-06-28T09:17:01.902Z,2.22
2023-06-28T09:19:29.460Z,1.90
2023-06-28T09:22:03.693Z,1.80
2023-06-28T09:24:35.832Z,1.90
2023-06-28T09:27:04.361Z,2.17
2023-06-28T09:29:31.978Z,1.80
2023-06-28T09:31:59.655Z,1.73
2023-06-28T09:34:27.237Z,1.90
2023-06-28T09:36:55.450Z,2.00
2023-06-28T09:39:23.502Z,1.80
2023-06-28T09:41:52.407Z,1.65
2023-06-28T09:44:30.125Z,1.90
2023-06-28T09:47:02.978Z,2.00
2023-06-28T09:49:31.106Z,1.60
2023-06-28T09:52:01.039Z,1.85
2023-06-28T09:54:32.398Z,2.20
2023-06-28T09:57:02.816Z,1.80
2023-06-28T09:59:37.177Z,2.10
2023-06-28T10:02:07.270Z,2.05
2023-06-28T10:04:36.881Z,1.80
2023-06-28T10:07:06.439Z,1.70
2023-06-28T10:09:37.574Z,1.80
2023-06-28T10:12:12.230Z,2.10
2023-06-28T10:14:44.337Z,2.00
2023-06-28T10:17:13.535Z,2.17
2023-06-28T10:19:41.386Z,1.83
2023-06-28T10:22:09.315Z,1.83
2023-06-28T10:24:38.501Z,2.00
2023-06-28T10:27:08.526Z,1.67
2023-06-28T10:29:37.253Z,1.83
2023-06-28T10:32:05.558Z,1.70
2023-06-28T10:34:35.686Z,1.67
2023-06-28T10:37:03.441Z,1.75
2023-06-28T10:39:31.193Z,1.80
2023-06-28T10:41:59.381Z,2.10
2023-06-28T10:44:28.370Z,2.00
2023-06-28T10:47:09.837Z,1.80
2023-06-28T10:49:37.749Z,1.80
2023-06-28T10:52:06.018Z,1.88
2023-06-28T10:54:33.542Z,1.80
2023-06-28T10:57:10.188Z,1.90
2023-06-28T10:59:42.339Z,1.80
2023-06-28T11:02:09.970Z,1.73
2023-06-28T11:04:51.674Z,1.70
2023-06-28T11:07:24.821Z,1.80
2023-06-28T11:10:12.078Z,2.00
2023-06-28T11:12:41.111Z,1.88
2023-06-28T11:15:14.700Z,1.60
2023-06-28T11:17:42.460Z,2.15
2023-06-28T11:20:12.928Z,1.90
2023-06-28T11:22:51.587Z,1.73
2023-06-28T11:25:19.205Z,1.60
2023-06-28T11:27:47.872Z,1.90
2023-06-28T11:30:18.479Z,1.90
2023-06-28T11:32:47.061Z,1.60
2023-06-28T11:35:15.169Z,1.80
2023-06-28T11:37:43.461Z,1.80
2023-06-28T11:40:12.477Z,1.90
2023-06-28T11:42:46.580Z,1.88
2023-06-28T11:45:22.551Z,1.92
2023-06-28T11:47:50.746Z,1.75
2023-06-28T11:50:18.360Z,1.55
2023-06-28T11:52:48.443Z,1.77
2023-06-28T11:55:16.314Z,1.67
2023-06-28T11:57:45.131Z,1.70
2023-06-28T12:00:14.069Z,1.70
2023-06-28T12:02:50.190Z,1.73
2023-06-28T12:05:19.950Z,1.77
2023-06-28T12:07:47.802Z,1.80
2023-06-28T12:10:17.468Z,2.00
2023-06-28T12:12:45.048Z,1.60
2023-06-28T12:15:14.460Z,2.00
2023-06-28T12:17:44.510Z,1.70
2023-06-28T12:20:14.130Z,1.80
2023-06-28T12:22:42.367Z,1.80
2023-06-28T12:25:10.836Z,1.67
2023-06-28T12:27:39.426Z,1.60
2023-06-28T12:30:11.886Z,1.75
2023-06-28T12:32:46.083Z,1.83
2023-06-28T12:35:25.156Z,1.83
2023-06-28T12:37:56.984Z,1.65
2023-06-28T12:40:29.625Z,1.80
2023-06-28T12:43:10.604Z,1.70
2023-06-28T12:45:45.038Z,2.00
2023-06-28T12:48:14.144Z,1.70
2023-06-28T12:50:43.010Z,1.80
2023-06-28T12:53:10.528Z,1.88
2023-06-28T12:55:38.115Z,1.70
2023-06-28T12:58:05.628Z,1.80
2023-06-28T13:00:34.012Z,1.70
2023-06-28T13:03:01.620Z,2.08
2023-06-28T13:05:29.156Z,1.70
2023-06-28T13:07:58.755Z,1.80
2023-06-28T13:10:26.300Z,1.85
2023-06-28T13:12:53.838Z,1.60
2023-06-28T13:15:21.350Z,1.60
2023-06-28T13:17:49.933Z,1.80
2023-06-28T13:20:18.553Z,1.90
2023-06-28T13:22:46.077Z,1.83
2023-06-28T13:25:15.065Z,1.65
2023-06-28T13:27:42.584Z,1.58
2023-06-28T13:30:10.638Z,1.70
2023-06-28T13:32:38.177Z,1.73
2023-06-28T13:35:07.664Z,1.70
2023-06-28T13:37:35.291Z,1.80
2023-06-28T13:40:04.152Z,1.50
2023-06-28T13:42:33.770Z,1.63
2023-06-28T13:45:01.337Z,1.40
2023-06-28T13:47:28.975Z,1.70
2023-06-28T13:49:57.964Z,1.60
2023-06-28T13:52:25.489Z,1.52
2023-06-28T13:54:52.989Z,1.60
2023-06-28T13:57:23.611Z,1.40
2023-06-28T13:59:52.925Z,1.80
2023-06-28T14:02:20.511Z,1.70
2023-06-28T14:04:48.101Z,1.50
2023-06-28T14:07:15.711Z,1.60
2023-06-28T14:09:43.456Z,1.63
2023-06-28T14:12:11.579Z,1.75
2023-06-28T14:14:39.400Z,1.50
2023-06-28T14:17:09.023Z,1.70
2023-06-28T14:19:36.593Z,1.70
2023-06-28T14:22:04.251Z,1.50
2023-06-28T14:24:31.749Z,1.30
2023-06-28T14:26:59.249Z,1.58
2023-06-28T14:29:26.821Z,1.58
2023-06-28T14:31:54.428Z,1.80
2023-06-28T14:34:23.394Z,1.75
2023-06-28T14:36:50.896Z,1.50
2023-06-28T14:39:19.934Z,1.52
2023-06-28T14:41:47.536Z,1.60
2023-06-28T14:44:16.317Z,1.60
2023-06-28T14:46:43.945Z,1.63
2023-06-28T14:49:11.660Z,1.60
2023-06-28T14:51:40.579Z,1.48
2023-06-28T14:54:08.210Z,1.45
2023-06-28T14:56:35.745Z,1.60
2023-06-28T14:59:03.245Z,1.52
2023-06-28T15:01:30.816Z,1.70
2023-06-28T15:03:58.396Z,1.40
2023-06-28T15:06:26.056Z,1.38
2023-06-28T15:08:54.917Z,1.40
2023-06-28T15:11:22.603Z,1.65
2023-06-28T15:13:50.205Z,1.80
2023-06-28T15:16:17.935Z,1.70
2023-06-28T15:18:45.678Z,1.73
2023-06-28T15:21:13.203Z,1.48
2023-06-28T15:23:40.894Z,1.60
2023-06-28T15:26:09.825Z,1.40
2023-06-28T15:28:37.436Z,1.70
2023-06-28T15:31:04.941Z,1.58
2023-06-28T15:33:32.486Z,1.60
2023-06-28T15:35:59.998Z,1.40
2023-06-28T15:38:27.505Z,1.35
2023-06-28T15:40:55.056Z,1.92
2023-06-28T15:43:24.007Z,1.73
2023-06-28T15:45:51.597Z,1.48
2023-06-28T15:48:19.139Z,1.55
2023-06-28T15:50:46.659Z,1.77
2023-06-28T15:53:14.342Z,1.48
2023-06-28T15:55:41.934Z,1.85
2023-06-28T15:58:09.559Z,1.58
2023-06-28T16:00:38.907Z,1.40
2023-06-28T16:03:06.627Z,1.45
2023-06-28T16:05:34.169Z,1.48
2023-06-28T16:08:01.666Z,1.70
2023-06-28T16:10:29.208Z,1.38
2023-06-28T16:12:56.819Z,1.50
2023-06-28T16:15:24.362Z,1.40
2023-06-28T16:17:53.271Z,1.40
2023-06-28T16:20:20.811Z,1.10
2023-06-28T16:22:50.705Z,1.38
2023-06-28T16:25:18.725Z,1.33
2023-06-28T16:27:47.211Z,1.35
2023-06-28T16:30:15.076Z,1.40
2023-06-28T16:32:42.577Z,1.60
2023-06-28T16:35:11.671Z,1.20
2023-06-28T16:37:40.770Z,1.38
2023-06-28T16:40:09.476Z,1.30
2023-06-28T16:42:36.985Z,1.38
2023-06-28T16:45:04.881Z,1.27
2023-06-28T16:47:32.435Z,1.30
2023-06-28T16:50:00.080Z,1.30
2023-06-28T16:52:29.070Z,1.40
2023-06-28T16:54:56.862Z,1.30
2023-06-28T16:57:24.423Z,1.40
2023-06-28T16:59:52.092Z,1.30
2023-06-28T17:02:19.723Z,1.40
2023-06-28T17:04:47.428Z,1.45
2023-06-28T17:07:15.093Z,1.30
2023-06-28T17:09:43.988Z,1.40
2023-06-28T17:12:11.560Z,1.50
2023-06-28T17:14:39.064Z,1.10
2023-06-28T17:17:06.624Z,1.10
2023-06-28T17:19:34.186Z,1.10
2023-06-28T17:22:02.385Z,1.15
2023-06-28T17:24:30.158Z,1.17
2023-06-28T17:26:59.036Z,1.23
2023-06-28T17:29:27.227Z,1.20
2023-06-28T17:31:54.864Z,1.20
2023-06-28T17:34:22.715Z,1.15
2023-06-28T17:36:52.342Z,1.40
2023-06-28T17:39:20.504Z,1.30
2023-06-28T17:41:48.056Z,1.20
2023-06-28T17:44:17.127Z,1.52
2023-06-28T17:46:44.630Z,1.20
2023-06-28T17:49:12.170Z,1.15
2023-06-28T17:51:39.672Z,1.20
2023-06-28T17:54:07.194Z,1.27
2023-06-28T17:56:34.847Z,2.83
2023-06-28T17:59:02.564Z,1.40
2023-06-28T18:01:31.544Z,1.40
2023-06-28T18:03:59.289Z,1.70
2023-06-28T18:06:26.840Z,1.60
2023-06-28T18:08:54.398Z,1.80
2023-06-28T18:11:21.918Z,1.50
2023-06-28T18:13:49.517Z,1.42
2023-06-28T18:16:17.170Z,1.30
2023-06-28T18:18:46.018Z,1.30
2023-06-28T18:21:13.589Z,1.30
2023-06-28T18:23:41.090Z,1.15
2023-06-28T18:26:08.633Z,1.27
2023-06-28T18:28:36.170Z,1.30
2023-06-28T18:31:03.977Z,1.27
2023-06-28T18:33:31.543Z,1.20
2023-06-28T18:36:00.418Z,1.50
2023-06-28T18:38:27.945Z,1.10
2023-06-28T18:40:55.565Z,1.10
2023-06-28T18:43:23.093Z,1.20
2023-06-28T18:45:50.897Z,1.70
2023-06-28T18:48:19.051Z,1.50
2023-06-28T18:50:46.574Z,1.50
2023-06-28T18:53:15.613Z,1.60
2023-06-28T18:55:43.115Z,1.30
2023-06-28T18:58:27.399Z,1.30
2023-06-28T19:00:54.984Z,1.40
2023-06-28T19:03:22.776Z,1.30
2023-06-28T19:05:50.490Z,1.50
2023-06-28T19:08:20.004Z,1.40
2023-06-28T19:10:47.586Z,1.40
2023-06-28T19:13:15.205Z,1.30
2023-06-28T19:15:43.123Z,1.52
2023-06-28T19:18:10.616Z,1.23
2023-06-28T19:20:38.825Z,1.25
2023-06-28T19:23:06.743Z,1.45
2023-06-28T19:25:35.588Z,1.60
2023-06-28T19:28:03.105Z,1.60
2023-06-28T19:30:30.659Z,2.67
2023-06-28T19:32:58.301Z,3.20
2023-06-28T19:35:25.852Z,3.28
2023-06-28T19:37:53.392Z,2.97
2023-06-28T19:40:21.121Z,1.60
2023-06-28T19:42:49.952Z,1.60
2023-06-28T19:45:17.490Z,1.60
2023-06-28T19:47:45.173Z,1.60
2023-06-28T19:50:12.709Z,1.60
2023-06-28T19:52:40.241Z,1.45
2023-06-28T19:55:09.865Z,1.63
2023-06-28T19:57:37.371Z,1.60
2023-06-28T20:00:07.889Z,1.60
2023-06-28T20:02:35.970Z,1.63
2023-06-28T20:05:03.792Z,1.60
2023-06-28T20:07:31.650Z,1.60
2023-06-28T20:09:59.437Z,1.52
2023-06-28T20:12:27.197Z,1.45
2023-06-28T20:14:55.174Z,1.50
2023-06-28T20:17:24.167Z,1.55
2023-06-28T20:19:51.663Z,1.92
2023-06-28T20:22:19.172Z,1.80
2023-06-28T20:24:46.692Z,1.77
2023-06-28T20:27:14.216Z,1.63
2023-06-28T20:29:41.775Z,1.70
2023-06-28T20:32:10.102Z,1.80
2023-06-28T20:34:39.745Z,1.88
2023-06-28T20:37:07.326Z,1.80
2023-06-28T20:39:34.876Z,1.77
2023-06-28T20:42:02.388Z,1.83
2023-06-28T20:44:36.040Z,2.00
2023-06-28T20:47:04.078Z,1.85
2023-06-28T20:49:31.777Z,1.90
2023-06-28T20:52:01.302Z,2.30
2023-06-28T20:54:28.869Z,1.80
2023-06-28T20:56:56.413Z,1.83
2023-06-28T20:59:23.955Z,1.90
2023-06-28T21:01:51.639Z,2.00
2023-06-28T21:04:19.254Z,1.70
2023-06-28T21:06:46.841Z,1.85
2023-06-28T21:09:15.740Z,1.80
2023-06-28T21:11:43.281Z,2.10
2023-06-28T21:14:10.809Z,1.90
2023-06-28T21:16:38.308Z,2.00
2023-06-28T21:19:05.880Z,1.70
2023-06-28T21:21:33.399Z,2.00
2023-06-28T21:24:00.984Z,1.60
2023-06-28T21:26:29.959Z,1.60
2023-06-28T21:28:57.466Z,1.87
2023-06-28T21:31:27.986Z,1.80
2023-06-28T21:33:56.712Z,1.80
2023-06-28T21:36:25.968Z,1.67
2023-06-28T21:38:53.901Z,1.70
2023-06-28T21:41:21.451Z,1.90
2023-06-28T21:43:50.372Z,1.90
2023-06-28T21:46:17.890Z,1.90
2023-06-28T21:48:45.423Z,2.03
2023-06-28T21:51:12.937Z,2.10
2023-06-28T21:53:40.491Z,1.93
2023-06-28T21:56:10.398Z,2.10
2023-06-28T21:58:38.208Z,2.10
2023-06-28T22:01:07.116Z,1.87
2023-06-28T22:03:34.795Z,1.80
2023-06-28T22:06:02.384Z,1.93
2023-06-28T22:08:29.976Z,1.70
2023-06-28T22:10:57.527Z,2.03
2023-06-28T22:13:25.519Z,1.80
2023-06-28T22:15:53.045Z,2.37
2023-06-28T22:18:22.019Z,1.93
2023-06-28T22:20:50.042Z,1.90
2023-06-28T22:23:19.195Z,2.03
2023-06-28T22:25:48.153Z,2.07
2023-06-28T22:28:15.758Z,2.07
2023-06-28T22:30:43.286Z,1.97
2023-06-28T22:33:10.875Z,2.07
2023-06-28T22:35:40.009Z,2.10
2023-06-28T22:38:08.018Z,2.00
2023-06-28T22:40:35.542Z,2.30
2023-06-28T22:43:03.078Z,2.30
2023-06-28T22:45:30.627Z,2.00
2023-06-28T22:47:58.160Z,2.10
2023-06-28T22:50:25.720Z,2.30
2023-06-28T22:52:55.988Z,1.83
2023-06-28T22:55:23.578Z,2.50
2023-06-28T22:57:51.460Z,2.40
2023-06-28T23:00:19.103Z,2.33
2023-06-28T23:02:46.701Z,2.50
2023-06-28T23:05:14.399Z,2.23
2023-06-28T23:07:42.188Z,2.47
2023-06-28T23:10:12.585Z,2.30
2023-06-28T23:12:40.697Z,2.23
2023-06-28T23:15:11.364Z,2.33
2023-06-28T23:17:39.378Z,2.40
2023-06-28T23:20:09.166Z,2.50
2023-06-28T23:22:37.117Z,2.63
2023-06-28T23:25:05.984Z,2.37
2023-06-28T23:27:35.331Z,2.67
2023-06-28T23:30:03.403Z,2.60
2023-06-28T23:32:31.115Z,2.57
2023-06-28T23:34:58.655Z,2.70
2023-06-28T23:37:26.172Z,2.50
2023-06-28T23:39:53.699Z,2.60
2023-06-28T23:42:21.242Z,2.73
2023-06-28T23:44:51.365Z,2.63
2023-06-28T23:47:19.497Z,2.70
2023-06-28T23:49:51.499Z,2.60
2023-06-28T23:52:19.678Z,2.60
2023-06-28T23:54:47.506Z,2.83
2023-06-28T23:57:15.091Z,2.80
2023-06-28T23:59:42.822Z,2.90
